createdAt,value
2018-11-13T00:00:42.723Z,99.99
2018-11-13T00:01:42.717Z,99.99
2018-11-13T00:02:42.689Z,99.99
2018-11-13T00:03:42.664Z,99.99
2018-11-13T00:04:42.648Z,99.99
2018-11-13T00:05:42.628Z,99.99
2018-11-13T00:06:42.616Z,99.99
2018-11-13T00:07:42.593Z,99.99
2018-11-13T00:08:42.580Z,99.99
2018-11-13T00:09:42.555Z,99.99
2018-11-13T00:10:42.542Z,99.99
2018-11-13T00:11:42.518Z,99.99
2018-11-13T00:12:42.499Z,99.99
2018-11-13T00:13:42.479Z,99.99
2018-11-13T00:14:42.463Z,99.99
2018-11-13T00:15:42.445Z,99.99
2018-11-13T00:16:42.425Z,99.99
2018-11-13T00:17:42.406Z,99.99
2018-11-13T00:18:42.415Z,99.99
2018-11-13T00:19:42.371Z,99.99
2018-11-13T00:20:42.358Z,99.99
2018-11-13T00:21:42.332Z,99.99
2018-11-13T00:22:42.313Z,99.99
2018-11-13T00:23:42.298Z,99.99
2018-11-13T00:24:42.285Z,99.99
2018-11-13T00:25:42.259Z,99.99
2018-11-13T00:26:42.239Z,99.99
2018-11-13T00:27:42.333Z,99.99
2018-11-13T00:28:42.213Z,99.99
2018-11-13T00:29:42.189Z,99.99
2018-11-13T00:30:42.464Z,99.99
2018-11-13T00:31:42.153Z,99.99
2018-11-13T00:32:42.131Z,99.99
2018-11-13T00:33:42.115Z,99.99
2018-11-13T00:34:42.093Z,99.99
2018-11-13T00:35:42.080Z,99.99
2018-11-13T00:36:42.054Z,99.99
2018-11-13T00:37:42.035Z,99.99
2018-11-13T00:38:42.022Z,99.99
2018-11-13T00:39:42.006Z,99.99
2018-11-13T00:40:41.986Z,99.99
2018-11-13T00:41:41.965Z,99.99
2018-11-13T00:42:41.949Z,99.99
2018-11-13T00:43:41.929Z,99.99
2018-11-13T00:44:41.911Z,99.99
2018-11-13T00:45:41.986Z,99.99
2018-11-13T00:46:41.864Z,99.99
2018-11-13T00:47:41.851Z,99.99
2018-11-13T00:48:41.834Z,99.99
2018-11-13T00:49:41.824Z,99.99
2018-11-13T00:50:41.812Z,99.99
2018-11-13T00:51:41.777Z,99.99
2018-11-13T00:52:41.758Z,99.99
2018-11-13T00:53:41.741Z,99.99
2018-11-13T00:54:41.780Z,99.99
2018-11-13T00:55:41.702Z,99.99
2018-11-13T00:56:41.682Z,99.99
2018-11-13T00:57:41.758Z,99.99
2018-11-13T00:58:41.644Z,99.99
2018-11-13T00:59:41.624Z,99.99
2018-11-13T01:00:41.612Z,99.99
2018-11-13T01:01:41.592Z,99.99
2018-11-13T01:02:41.576Z,99.99
2018-11-13T01:03:41.557Z,99.99
2018-11-13T01:04:41.538Z,99.99
2018-11-13T01:05:41.551Z,99.99
2018-11-13T01:06:41.502Z,99.99
2018-11-13T01:07:41.567Z,99.99
2018-11-13T01:08:41.461Z,99.99
2018-11-13T01:09:41.444Z,99.99
2018-11-13T01:10:41.421Z,99.99
2018-11-13T01:11:41.456Z,99.99
2018-11-13T01:12:41.387Z,99.99
2018-11-13T01:13:41.370Z,99.99
2018-11-13T01:14:41.349Z,99.99
2018-11-13T01:15:41.326Z,99.99
2018-11-13T01:16:41.313Z,99.99
2018-11-13T01:17:41.291Z,99.99
2018-11-13T01:18:41.276Z,99.99
2018-11-13T01:19:41.260Z,99.99
2018-11-13T01:20:41.240Z,99.99
2018-11-13T01:21:41.215Z,99.99
2018-11-13T01:22:41.195Z,99.99
2018-11-13T01:23:41.177Z,99.99
2018-11-13T01:24:41.164Z,99.99
2018-11-13T01:25:41.141Z,99.99
2018-11-13T01:26:41.128Z,99.99
2018-11-13T01:27:41.106Z,99.99
2018-11-13T01:28:41.150Z,99.99
2018-11-13T01:29:41.070Z,99.99
2018-11-13T01:30:41.048Z,99.99
2018-11-13T01:31:41.032Z,99.99
2018-11-13T01:32:41.013Z,99.99
2018-11-13T01:33:40.996Z,99.99
2018-11-13T01:34:40.971Z,99.99
2018-11-13T01:35:40.961Z,99.99
2018-11-13T01:36:40.951Z,99.99
2018-11-13T01:37:40.920Z,99.99
2018-11-13T01:38:40.897Z,99.99
2018-11-13T01:39:40.878Z,99.99
2018-11-13T01:40:40.864Z,99.99
2018-11-13T01:41:40.849Z,99.99
2018-11-13T01:42:40.826Z,99.99
2018-11-13T01:43:40.807Z,99.99
2018-11-13T01:44:40.781Z,99.99
2018-11-13T01:45:40.762Z,99.99
2018-11-13T01:46:40.749Z,99.99
2018-11-13T01:47:40.733Z,99.99
2018-11-13T01:48:40.714Z,99.99
2018-11-13T01:49:40.997Z,99.99
2018-11-13T01:50:40.669Z,99.99
2018-11-13T01:51:40.650Z,99.99
2018-11-13T01:52:40.632Z,99.99
2018-11-13T01:53:40.618Z,99.99
2018-11-13T01:54:40.590Z,99.99
2018-11-13T01:55:40.579Z,99.99
2018-11-13T01:56:40.557Z,99.99
2018-11-13T01:57:40.541Z,99.99
2018-11-13T01:58:40.524Z,99.99
2018-11-13T01:59:40.499Z,99.99
2018-11-13T02:00:40.489Z,99.99
2018-11-13T02:01:40.464Z,99.99
2018-11-13T02:02:40.444Z,99.99
2018-11-13T02:03:40.426Z,99.99
2018-11-13T02:04:40.417Z,99.99
2018-11-13T02:05:40.397Z,99.99
2018-11-13T02:06:40.368Z,99.99
2018-11-13T02:07:40.348Z,99.99
2018-11-13T02:08:40.340Z,99.99
2018-11-13T02:09:40.309Z,99.99
2018-11-13T02:10:40.289Z,99.99
2018-11-13T02:11:40.270Z,99.99
2018-11-13T02:12:40.254Z,99.99
2018-11-13T02:13:40.242Z,99.99
2018-11-13T02:14:40.223Z,99.99
2018-11-13T02:15:40.203Z,99.99
2018-11-13T02:16:40.187Z,99.99
2018-11-13T02:17:40.162Z,99.99
2018-11-13T02:18:40.142Z,99.99
2018-11-13T02:19:40.126Z,99.99
2018-11-13T02:20:40.101Z,99.99
2018-11-13T02:21:40.082Z,99.99
2018-11-13T02:22:40.062Z,99.99
2018-11-13T02:23:40.044Z,99.99
2018-11-13T02:24:40.025Z,99.99
2018-11-13T02:25:40.008Z,99.99
2018-11-13T02:26:39.996Z,99.99
2018-11-13T02:27:39.976Z,99.99
2018-11-13T02:28:39.948Z,99.99
2018-11-13T02:29:40.492Z,99.99
2018-11-13T02:30:39.910Z,99.99
2018-11-13T02:31:39.895Z,99.99
2018-11-13T02:32:39.878Z,99.99
2018-11-13T02:33:39.856Z,99.99
2018-11-13T02:34:39.845Z,99.99
2018-11-13T02:35:39.915Z,99.99
2018-11-13T02:36:39.798Z,99.99
2018-11-13T02:37:39.785Z,99.99
2018-11-13T02:38:39.762Z,99.99
2018-11-13T02:39:39.741Z,99.99
2018-11-13T02:40:39.727Z,99.99
2018-11-13T02:41:39.699Z,99.99
2018-11-13T02:42:39.687Z,99.99
2018-11-13T02:43:39.671Z,99.99
2018-11-13T02:44:39.645Z,99.99
2018-11-13T02:45:39.623Z,99.99
2018-11-13T02:46:39.606Z,99.99
2018-11-13T02:47:39.589Z,99.99
2018-11-13T02:48:39.575Z,99.99
2018-11-13T02:49:39.551Z,99.99
2018-11-13T02:50:39.532Z,99.99
2018-11-13T02:51:39.517Z,99.99
2018-11-13T02:52:39.489Z,99.99
2018-11-13T02:53:39.474Z,99.99
2018-11-13T02:54:39.451Z,99.99
2018-11-13T02:55:39.438Z,99.99
2018-11-13T02:56:39.415Z,99.99
2018-11-13T02:57:39.399Z,99.99
2018-11-13T02:58:39.383Z,99.99
2018-11-13T02:59:39.355Z,99.99
2018-11-13T03:00:39.342Z,99.99
2018-11-13T03:01:39.319Z,99.99
2018-11-13T03:02:39.301Z,99.99
2018-11-13T03:03:39.279Z,99.99
2018-11-13T03:04:39.262Z,99.99
2018-11-13T03:05:39.240Z,99.99
2018-11-13T03:06:39.228Z,99.99
2018-11-13T03:07:39.215Z,99.99
2018-11-13T03:08:39.183Z,99.99
2018-11-13T03:09:39.164Z,99.99
2018-11-13T03:10:39.148Z,99.99
2018-11-13T03:11:39.133Z,99.99
2018-11-13T03:12:39.108Z,99.99
2018-11-13T03:13:39.124Z,99.99
2018-11-13T03:14:39.067Z,99.99
2018-11-13T03:15:39.063Z,99.99
2018-11-13T03:16:39.034Z,99.99
2018-11-13T03:17:39.009Z,99.99
2018-11-13T03:18:38.991Z,99.99
2018-11-13T03:19:38.973Z,99.99
2018-11-13T03:20:38.958Z,99.99
2018-11-13T03:21:38.939Z,99.99
2018-11-13T03:22:38.913Z,99.99
2018-11-13T03:23:38.895Z,99.99
2018-11-13T03:24:38.876Z,99.99
2018-11-13T03:25:38.863Z,99.99
2018-11-13T03:26:38.840Z,99.99
2018-11-13T03:27:38.818Z,99.99
2018-11-13T03:28:38.808Z,99.99
2018-11-13T03:29:38.783Z,99.99
2018-11-13T03:30:38.761Z,99.99
2018-11-13T03:31:38.842Z,99.99
2018-11-13T03:32:38.726Z,99.99
2018-11-13T03:33:38.709Z,99.99
2018-11-13T03:34:38.683Z,99.99
2018-11-13T03:35:38.670Z,99.99
2018-11-13T03:36:38.655Z,99.99
2018-11-13T03:37:38.622Z,99.99
2018-11-13T03:38:38.603Z,99.99
2018-11-13T03:39:38.584Z,99.99
2018-11-13T03:40:38.568Z,99.99
2018-11-13T03:41:38.545Z,99.99
2018-11-13T03:42:38.527Z,99.99
2018-11-13T03:43:38.507Z,99.99
2018-11-13T03:44:38.494Z,99.99
2018-11-13T03:45:38.491Z,99.99
2018-11-13T03:46:38.452Z,99.99
2018-11-13T03:47:38.441Z,99.99
2018-11-13T03:48:38.417Z,99.99
2018-11-13T03:49:38.388Z,99.99
2018-11-13T03:50:38.375Z,99.99
2018-11-13T03:51:38.349Z,99.99
2018-11-13T03:52:38.330Z,99.99
2018-11-13T03:53:38.312Z,99.99
2018-11-13T03:54:38.298Z,99.99
2018-11-13T03:55:38.280Z,99.99
2018-11-13T03:56:38.256Z,99.99
2018-11-13T03:57:38.232Z,99.99
2018-11-13T03:58:38.222Z,99.99
2018-11-13T03:59:38.200Z,99.99
2018-11-13T04:00:38.173Z,99.99
2018-11-13T04:01:38.155Z,99.99
2018-11-13T04:02:38.135Z,99.99
2018-11-13T04:03:38.123Z,99.99
2018-11-13T04:04:38.100Z,99.99
2018-11-13T04:05:39.022Z,99.99
2018-11-13T04:06:38.061Z,99.99
2018-11-13T04:07:38.036Z,99.99
2018-11-13T04:08:38.027Z,99.99
2018-11-13T04:09:37.997Z,99.99
2018-11-13T04:10:37.981Z,99.99
2018-11-13T04:11:37.967Z,99.99
2018-11-13T04:12:37.945Z,99.99
2018-11-13T04:13:37.921Z,99.99
2018-11-13T04:14:37.903Z,99.99
2018-11-13T04:15:37.880Z,99.99
2018-11-13T04:16:37.859Z,99.99
2018-11-13T04:17:37.846Z,99.99
2018-11-13T04:18:37.821Z,99.99
2018-11-13T04:19:37.811Z,99.99
2018-11-13T04:20:37.781Z,99.99
2018-11-13T04:21:37.779Z,99.99
2018-11-13T04:22:37.740Z,99.99
2018-11-13T04:23:37.721Z,99.99
2018-11-13T04:24:37.703Z,99.99
2018-11-13T04:25:37.690Z,99.99
2018-11-13T04:26:37.664Z,99.99
2018-11-13T04:27:37.641Z,99.99
2018-11-13T04:28:37.629Z,99.99
2018-11-13T04:29:37.609Z,99.99
2018-11-13T04:30:37.617Z,99.99
2018-11-13T04:31:37.571Z,99.99
2018-11-13T04:32:37.552Z,99.99
2018-11-13T04:33:37.523Z,99.99
2018-11-13T04:34:37.510Z,99.99
2018-11-13T04:35:37.502Z,99.99
2018-11-13T04:36:37.466Z,99.99
2018-11-13T04:37:37.446Z,99.99
2018-11-13T04:38:37.434Z,99.99
2018-11-13T04:39:37.414Z,99.99
2018-11-13T04:40:37.396Z,99.99
2018-11-13T04:41:37.368Z,99.99
2018-11-13T04:42:37.354Z,99.99
2018-11-13T04:43:37.329Z,99.99
2018-11-13T04:44:37.314Z,99.99
2018-11-13T04:45:37.291Z,99.99
2018-11-13T04:46:37.268Z,99.99
2018-11-13T04:47:37.249Z,99.99
2018-11-13T04:48:37.250Z,99.99
2018-11-13T04:49:37.211Z,99.99
2018-11-13T04:50:37.194Z,99.99
2018-11-13T04:51:37.320Z,99.99
2018-11-13T04:52:37.173Z,99.99
2018-11-13T04:53:37.139Z,99.99
2018-11-13T04:54:37.112Z,99.99
2018-11-13T04:55:37.093Z,99.99
2018-11-13T04:56:37.084Z,99.99
2018-11-13T04:57:37.058Z,99.99
2018-11-13T04:58:37.033Z,99.99
2018-11-13T04:59:37.017Z,99.99
2018-11-13T05:00:36.997Z,99.99
2018-11-13T05:01:36.981Z,99.99
2018-11-13T05:02:36.997Z,99.99
2018-11-13T05:03:36.937Z,99.99
2018-11-13T05:04:36.918Z,99.99
2018-11-13T05:05:36.920Z,99.99
2018-11-13T05:06:36.887Z,99.99
2018-11-13T05:07:36.875Z,99.99
2018-11-13T05:08:36.839Z,99.99
2018-11-13T05:09:36.832Z,99.99
2018-11-13T05:10:36.797Z,99.99
2018-11-13T05:11:36.777Z,99.99
2018-11-13T05:12:36.759Z,99.99
2018-11-13T05:13:36.744Z,99.99
2018-11-13T05:14:36.724Z,99.99
2018-11-13T05:15:36.707Z,99.99
2018-11-13T05:16:36.678Z,99.99
2018-11-13T05:17:36.667Z,99.99
2018-11-13T05:18:36.639Z,99.99
2018-11-13T05:19:36.628Z,99.99
2018-11-13T05:20:36.601Z,99.99
2018-11-13T05:21:36.581Z,99.99
2018-11-13T05:22:36.559Z,99.99
2018-11-13T05:23:36.546Z,99.99
2018-11-13T05:24:36.517Z,99.99
2018-11-13T05:25:36.506Z,99.99
2018-11-13T05:26:36.490Z,99.99
2018-11-13T05:27:36.468Z,99.99
2018-11-13T05:28:36.451Z,99.99
2018-11-13T05:29:36.426Z,99.99
2018-11-13T05:30:36.410Z,99.99
2018-11-13T05:31:36.382Z,99.99
2018-11-13T05:32:36.363Z,99.99
2018-11-13T05:33:36.349Z,99.99
2018-11-13T05:34:36.330Z,99.99
2018-11-13T05:35:36.301Z,99.99
2018-11-13T05:36:36.288Z,99.99
2018-11-13T05:37:36.265Z,99.99
2018-11-13T05:38:36.252Z,99.99
2018-11-13T05:39:36.224Z,99.99
2018-11-13T05:40:36.208Z,99.99
2018-11-13T05:41:36.227Z,99.99
2018-11-13T05:42:36.165Z,99.99
2018-11-13T05:43:36.147Z,99.99
2018-11-13T05:44:36.124Z,99.99
2018-11-13T05:45:36.105Z,99.99
2018-11-13T05:46:36.089Z,99.99
2018-11-13T05:47:36.070Z,99.99
2018-11-13T05:48:36.050Z,99.99
2018-11-13T05:49:36.025Z,99.99
2018-11-13T05:50:36.005Z,99.99
2018-11-13T05:51:35.987Z,99.99
2018-11-13T05:52:35.967Z,99.99
2018-11-13T05:53:35.944Z,99.99
2018-11-13T05:54:35.926Z,99.99
2018-11-13T05:55:35.906Z,99.99
2018-11-13T05:56:35.890Z,99.99
2018-11-13T05:57:35.871Z,99.99
2018-11-13T05:58:35.847Z,99.99
2018-11-13T05:59:35.892Z,99.99
2018-11-13T06:00:35.833Z,99.99
2018-11-13T06:01:35.778Z,99.99
2018-11-13T06:02:35.769Z,99.99
2018-11-13T06:03:35.746Z,99.99
2018-11-13T06:04:35.737Z,99.99
2018-11-13T06:05:35.708Z,99.99
2018-11-13T06:06:35.691Z,99.99
2018-11-13T06:07:35.666Z,99.99
2018-11-13T06:08:35.715Z,99.99
2018-11-13T06:09:35.631Z,99.99
2018-11-13T06:10:35.613Z,99.99
2018-11-13T06:11:35.589Z,99.99
2018-11-13T06:12:35.573Z,99.99
2018-11-13T06:13:35.551Z,99.99
2018-11-13T06:14:35.532Z,99.99
2018-11-13T06:15:35.511Z,99.99
2018-11-13T06:16:35.495Z,99.99
2018-11-13T06:17:35.471Z,99.99
2018-11-13T06:18:35.453Z,99.99
2018-11-13T06:19:35.428Z,99.99
2018-11-13T06:20:35.405Z,99.99
2018-11-13T06:21:35.389Z,99.99
2018-11-13T06:22:35.370Z,99.99
2018-11-13T06:23:35.351Z,99.99
2018-11-13T06:24:35.335Z,99.99
2018-11-13T06:25:35.315Z,99.99
2018-11-13T06:26:35.354Z,99.99
2018-11-13T06:27:35.268Z,99.99
2018-11-13T06:28:35.250Z,99.99
2018-11-13T06:29:35.286Z,99.99
2018-11-13T06:30:35.208Z,99.99
2018-11-13T06:31:35.195Z,99.99
2018-11-13T06:32:35.179Z,99.99
2018-11-13T06:33:35.152Z,99.99
2018-11-13T06:34:35.137Z,99.99
2018-11-13T06:35:35.108Z,99.99
2018-11-13T06:36:35.090Z,99.99
2018-11-13T06:37:35.070Z,99.99
2018-11-13T06:38:35.094Z,99.99
2018-11-13T06:39:35.032Z,99.99
2018-11-13T06:40:35.016Z,99.99
2018-11-13T06:41:34.999Z,99.99
2018-11-13T06:42:34.983Z,99.99
2018-11-13T06:43:34.949Z,99.99
2018-11-13T06:44:34.936Z,99.99
2018-11-13T06:45:34.912Z,99.99
2018-11-13T06:46:34.895Z,99.99
2018-11-13T06:47:34.872Z,99.99
2018-11-13T06:48:34.849Z,99.99
2018-11-13T06:49:34.903Z,99.99
2018-11-13T06:50:34.811Z,99.99
2018-11-13T06:51:34.795Z,99.99
2018-11-13T06:52:34.766Z,99.99
2018-11-13T06:53:34.756Z,99.99
2018-11-13T06:54:34.732Z,99.99
2018-11-13T06:55:34.720Z,99.99
2018-11-13T06:56:34.688Z,99.99
2018-11-13T06:57:34.686Z,99.99
2018-11-13T06:58:34.653Z,99.99
2018-11-13T06:59:34.636Z,99.99
2018-11-13T07:00:34.611Z,99.99
2018-11-13T07:01:34.589Z,99.99
2018-11-13T07:02:34.569Z,99.99
2018-11-13T07:03:34.547Z,99.99
2018-11-13T07:04:34.532Z,99.99
2018-11-13T07:05:34.512Z,99.99
2018-11-13T07:06:34.494Z,99.99
2018-11-13T07:07:34.483Z,99.99
2018-11-13T07:08:34.448Z,99.99
2018-11-13T07:09:34.435Z,99.99
2018-11-13T07:10:34.440Z,99.99
2018-11-13T07:11:34.394Z,99.99
2018-11-13T07:12:34.371Z,99.99
2018-11-13T07:13:34.354Z,99.99
2018-11-13T07:14:34.330Z,99.99
2018-11-13T07:15:34.313Z,99.99
2018-11-13T07:16:34.297Z,99.99
2018-11-13T07:17:34.268Z,99.99
2018-11-13T07:18:34.321Z,99.99
2018-11-13T07:19:34.229Z,99.99
2018-11-13T07:20:34.216Z,99.99
2018-11-13T07:21:34.188Z,99.99
2018-11-13T07:22:34.170Z,99.99
2018-11-13T07:23:34.159Z,99.99
2018-11-13T07:24:34.134Z,99.99
2018-11-13T07:25:34.221Z,99.99
2018-11-13T07:26:34.090Z,99.99
2018-11-13T07:27:34.107Z,99.99
2018-11-13T07:28:34.058Z,99.99
2018-11-13T07:29:34.040Z,99.99
2018-11-13T07:30:34.011Z,99.99
2018-11-13T07:31:33.992Z,99.99
2018-11-13T07:32:33.975Z,99.99
2018-11-13T07:33:34.018Z,99.99
2018-11-13T07:34:33.932Z,99.99
2018-11-13T07:35:33.917Z,99.99
2018-11-13T07:36:33.898Z,99.99
2018-11-13T07:37:33.872Z,99.99
2018-11-13T07:38:33.859Z,99.99
2018-11-13T07:39:33.830Z,99.99
2018-11-13T07:40:33.821Z,99.99
2018-11-13T07:41:33.798Z,99.99
2018-11-13T07:42:33.779Z,99.99
2018-11-13T07:43:33.757Z,99.99
2018-11-13T07:44:33.734Z,99.99
2018-11-13T07:45:33.711Z,99.99
2018-11-13T07:46:33.699Z,99.99
2018-11-13T07:47:33.816Z,99.99
2018-11-13T07:48:33.653Z,99.99
2018-11-13T07:49:33.642Z,99.99
2018-11-13T07:50:33.614Z,99.99
2018-11-13T07:51:33.600Z,99.99
2018-11-13T07:52:33.610Z,99.99
2018-11-13T07:53:33.561Z,99.99
2018-11-13T07:54:33.541Z,99.99
2018-11-13T07:55:33.522Z,99.99
2018-11-13T07:56:33.503Z,99.99
2018-11-13T07:57:33.481Z,99.99
2018-11-13T07:58:33.483Z,99.99
2018-11-13T07:59:33.442Z,99.99
2018-11-13T08:00:33.416Z,99.99
2018-11-13T08:01:33.400Z,99.99
2018-11-13T08:02:33.379Z,99.99
2018-11-13T08:03:33.381Z,99.99
2018-11-13T08:04:33.365Z,99.99
2018-11-13T08:05:33.366Z,99.99
2018-11-13T08:06:33.390Z,99.99
2018-11-13T08:07:33.285Z,99.99
2018-11-13T08:08:33.262Z,99.99
2018-11-13T08:09:33.240Z,99.99
2018-11-13T08:10:33.231Z,99.99
2018-11-13T08:11:33.202Z,99.99
2018-11-13T08:12:33.189Z,99.99
2018-11-13T08:13:33.255Z,99.99
2018-11-13T08:14:33.141Z,99.99
2018-11-13T08:15:33.133Z,99.99
2018-11-13T08:16:33.141Z,99.99
2018-11-13T08:17:33.091Z,99.99
2018-11-13T08:18:33.134Z,99.99
2018-11-13T08:19:33.056Z,99.99
2018-11-13T08:20:33.027Z,99.99
2018-11-13T08:21:33.008Z,99.99
2018-11-13T08:22:32.992Z,99.99
2018-11-13T08:23:32.977Z,99.99
2018-11-13T08:24:32.955Z,99.99
2018-11-13T08:25:32.976Z,99.99
2018-11-13T08:26:32.922Z,99.99
2018-11-13T08:27:32.888Z,99.99
2018-11-13T08:28:32.962Z,99.99
2018-11-13T08:29:32.870Z,99.99
2018-11-13T08:30:32.839Z,99.99
2018-11-13T08:31:32.888Z,99.99
2018-11-13T08:32:32.795Z,99.99
2018-11-13T08:33:32.772Z,99.99
2018-11-13T08:34:32.760Z,99.99
2018-11-13T08:35:32.775Z,99.99
2018-11-13T08:36:32.718Z,99.99
2018-11-13T08:37:32.692Z,99.99
2018-11-13T08:38:32.674Z,99.99
2018-11-13T08:39:32.661Z,99.99
2018-11-13T08:40:32.651Z,99.99
2018-11-13T08:41:32.620Z,99.99
2018-11-13T08:42:32.597Z,99.99
2018-11-13T08:43:32.577Z,99.99
2018-11-13T08:44:32.565Z,99.99
2018-11-13T08:45:32.536Z,99.99
2018-11-13T08:46:32.529Z,99.99
2018-11-13T08:47:32.501Z,99.99
2018-11-13T08:48:32.479Z,99.99
2018-11-13T08:49:32.465Z,99.99
2018-11-13T08:50:32.572Z,99.99
2018-11-13T08:51:32.436Z,99.99
2018-11-13T08:52:32.404Z,99.99
2018-11-13T08:53:32.379Z,99.99
2018-11-13T08:54:32.366Z,99.99
2018-11-13T08:55:32.338Z,99.99
2018-11-13T08:56:32.326Z,99.99
2018-11-13T08:57:32.300Z,99.99
2018-11-13T08:58:32.385Z,99.99
2018-11-13T08:59:32.325Z,99.99
2018-11-13T09:00:32.246Z,99.99
2018-11-13T09:01:32.220Z,99.99
2018-11-13T09:02:32.210Z,99.99
2018-11-13T09:03:32.182Z,99.99
2018-11-13T09:04:32.166Z,99.99
2018-11-13T09:05:32.147Z,99.99
2018-11-13T09:06:32.131Z,99.99
2018-11-13T09:07:32.110Z,99.99
2018-11-13T09:08:32.090Z,99.99
2018-11-13T09:09:32.061Z,99.99
2018-11-13T09:10:32.055Z,99.99
2018-11-13T09:11:32.081Z,99.99
2018-11-13T09:12:32.180Z,99.99
2018-11-13T09:13:31.985Z,99.99
2018-11-13T09:14:31.966Z,99.99
2018-11-13T09:15:31.947Z,99.99
2018-11-13T09:16:31.931Z,99.99
2018-11-13T09:17:31.904Z,99.99
2018-11-13T09:18:31.891Z,99.99
2018-11-13T09:19:31.980Z,99.99
2018-11-13T09:20:31.863Z,99.99
2018-11-13T09:21:31.830Z,99.99
2018-11-13T09:22:31.814Z,99.99
2018-11-13T09:23:31.794Z,99.99
2018-11-13T09:24:31.770Z,99.99
2018-11-13T09:25:31.750Z,99.99
2018-11-13T09:26:31.731Z,99.99
2018-11-13T09:27:31.710Z,99.99
2018-11-13T09:28:31.694Z,99.99
2018-11-13T09:29:31.671Z,99.99
2018-11-13T09:30:31.947Z,99.99
2018-11-13T09:31:31.683Z,99.99
2018-11-13T09:32:31.616Z,99.99
2018-11-13T09:33:31.626Z,99.99
2018-11-13T09:34:31.576Z,99.99
2018-11-13T09:35:31.550Z,99.99
2018-11-13T09:36:31.531Z,99.99
2018-11-13T09:37:31.597Z,99.99
2018-11-13T09:38:31.492Z,99.99
2018-11-13T09:39:31.469Z,99.99
2018-11-13T09:40:31.450Z,99.99
2018-11-13T09:41:31.434Z,99.99
2018-11-13T09:42:31.409Z,99.99
2018-11-13T09:43:31.395Z,99.99
2018-11-13T09:44:31.377Z,99.99
2018-11-13T09:45:31.351Z,99.99
2018-11-13T09:46:31.410Z,99.99
2018-11-13T09:47:31.346Z,99.99
2018-11-13T09:48:31.293Z,99.99
2018-11-13T09:49:31.280Z,99.99
2018-11-13T09:50:31.294Z,99.99
2018-11-13T09:51:31.240Z,99.99
2018-11-13T09:52:31.213Z,99.99
2018-11-13T09:53:31.276Z,99.99
2018-11-13T09:54:31.174Z,99.99
2018-11-13T09:55:31.174Z,99.99
2018-11-13T09:56:31.201Z,99.99
2018-11-13T09:57:31.119Z,99.99
2018-11-13T09:58:31.104Z,99.99
2018-11-13T09:59:31.087Z,99.99
2018-11-13T10:00:31.115Z,99.99
2018-11-13T10:01:31.425Z,99.99
2018-11-13T10:02:31.604Z,99.99
2018-11-13T10:03:31.492Z,99.99
2018-11-13T10:04:31.805Z,99.99
2018-11-13T10:05:31.086Z,99.99
2018-11-13T10:06:30.941Z,99.99
2018-11-13T10:07:30.922Z,99.99
2018-11-13T10:08:30.906Z,99.99
2018-11-13T10:09:30.883Z,99.99
2018-11-13T10:10:30.904Z,99.99
2018-11-13T10:11:30.844Z,99.99
2018-11-13T10:12:30.832Z,99.99
2018-11-13T10:13:30.805Z,99.99
2018-11-13T10:14:30.796Z,99.99
2018-11-13T10:15:30.767Z,99.99
2018-11-13T10:16:30.750Z,99.99
2018-11-13T10:17:30.747Z,99.99
2018-11-13T10:18:30.712Z,99.99
2018-11-13T10:19:30.692Z,99.99
2018-11-13T10:20:30.673Z,99.99
2018-11-13T10:21:30.651Z,99.99
2018-11-13T10:22:30.635Z,99.99
2018-11-13T10:23:30.615Z,99.99
2018-11-13T10:24:30.599Z,99.99
2018-11-13T10:25:30.578Z,99.99
2018-11-13T10:26:30.674Z,99.99
2018-11-13T10:27:30.539Z,99.99
2018-11-13T10:28:30.514Z,99.99
2018-11-13T10:29:30.495Z,99.99
2018-11-13T10:30:30.479Z,99.99
2018-11-13T10:31:30.466Z,99.99
2018-11-13T10:32:30.460Z,99.99
2018-11-13T10:33:30.415Z,99.99
2018-11-13T10:34:30.396Z,99.99
2018-11-13T10:35:30.380Z,99.99
2018-11-13T10:36:30.366Z,99.99
2018-11-13T10:37:30.396Z,99.99
2018-11-13T10:38:30.327Z,99.99
2018-11-13T10:39:30.300Z,99.99
2018-11-13T10:40:30.399Z,99.99
2018-11-13T10:41:30.350Z,99.99
2018-11-13T10:42:30.245Z,99.99
2018-11-13T10:43:30.223Z,99.99
2018-11-13T10:44:30.207Z,99.99
2018-11-13T10:45:30.188Z,99.99
2018-11-13T10:46:30.162Z,99.99
2018-11-13T10:47:30.146Z,99.99
2018-11-13T10:48:30.134Z,99.99
2018-11-13T10:49:30.112Z,99.99
2018-11-13T10:50:30.202Z,99.99
2018-11-13T10:51:30.070Z,99.99
2018-11-13T10:52:30.062Z,99.99
2018-11-13T10:53:30.038Z,99.99
2018-11-13T10:54:30.015Z,99.99
2018-11-13T10:55:29.999Z,99.99
2018-11-13T10:56:29.999Z,99.99
2018-11-13T10:57:29.955Z,99.99
2018-11-13T10:58:29.934Z,99.99
2018-11-13T10:59:29.937Z,99.99
2018-11-13T11:00:29.898Z,99.99
2018-11-13T11:01:29.879Z,99.99
2018-11-13T11:02:29.938Z,99.99
2018-11-13T11:03:29.849Z,99.99
2018-11-13T11:04:29.859Z,99.99
2018-11-13T11:05:29.814Z,99.99
2018-11-13T11:06:29.796Z,99.99
2018-11-13T11:07:29.767Z,99.99
2018-11-13T11:08:29.761Z,99.99
2018-11-13T11:09:29.751Z,99.99
2018-11-13T11:10:29.722Z,99.99
2018-11-13T11:11:29.841Z,99.99
2018-11-13T11:12:29.681Z,99.99
2018-11-13T11:13:29.808Z,99.99
2018-11-13T11:14:29.664Z,99.99
2018-11-13T11:15:29.640Z,99.99
2018-11-13T11:16:29.619Z,99.99
2018-11-13T11:17:29.605Z,99.99
2018-11-13T11:18:29.648Z,99.99
2018-11-13T11:19:29.735Z,99.99
2018-11-13T11:20:29.557Z,99.99
2018-11-13T11:21:29.538Z,99.99
2018-11-13T11:22:29.525Z,99.99
2018-11-13T11:23:29.531Z,99.99
2018-11-13T11:24:29.495Z,99.99
2018-11-13T11:25:29.621Z,99.99
2018-11-13T11:26:29.523Z,99.99
2018-11-13T11:27:29.447Z,99.99
2018-11-13T11:28:29.431Z,99.99
2018-11-13T11:29:30.162Z,99.99
2018-11-13T11:30:29.399Z,99.99
2018-11-13T11:31:29.380Z,99.99
2018-11-13T11:32:29.367Z,99.99
2018-11-13T11:33:29.351Z,99.99
2018-11-13T11:34:29.341Z,99.99
2018-11-13T11:35:29.318Z,99.99
2018-11-13T11:36:29.301Z,99.99
2018-11-13T11:37:29.286Z,99.99
2018-11-13T11:38:29.388Z,99.99
2018-11-13T11:39:29.258Z,99.99
2018-11-13T11:40:29.263Z,99.99
2018-11-13T11:41:29.221Z,99.99
2018-11-13T11:42:29.208Z,99.99
2018-11-13T11:43:29.189Z,99.99
2018-11-13T11:44:29.243Z,98.61
2018-11-13T11:45:29.161Z,99.99
2018-11-13T11:46:29.385Z,99.05
2018-11-13T11:47:29.131Z,98.28
2018-11-13T11:48:29.118Z,98.47
2018-11-13T11:49:29.099Z,98.76
2018-11-13T11:50:29.084Z,99.38
2018-11-13T11:51:29.087Z,99.38
2018-11-13T11:52:29.056Z,99.76
2018-11-13T11:53:29.041Z,99.91
2018-11-13T11:54:29.025Z,98.09
2018-11-13T11:55:29.012Z,99.77
2018-11-13T11:56:28.996Z,98.62
2018-11-13T11:57:28.977Z,98.71
2018-11-13T11:58:28.964Z,97.23
2018-11-13T11:59:28.951Z,97.66
2018-11-13T12:00:28.964Z,98.81
2018-11-13T12:01:28.923Z,98.43
2018-11-13T12:02:28.909Z,98.66
2018-11-13T12:03:28.893Z,98.86
2018-11-13T12:04:28.940Z,97.90
2018-11-13T12:05:28.864Z,98.76
2018-11-13T12:06:28.851Z,98.09
2018-11-13T12:07:28.835Z,97.33
2018-11-13T12:08:28.816Z,98.76
2018-11-13T12:09:28.833Z,97.42
2018-11-13T12:10:28.794Z,97.04
2018-11-13T12:11:28.776Z,96.99
2018-11-13T12:12:28.775Z,98.14
2018-11-13T12:13:28.755Z,99.96
2018-11-13T12:14:28.744Z,98.71
2018-11-13T12:15:28.734Z,98.61
2018-11-13T12:16:28.707Z,99.52
2018-11-13T12:17:28.688Z,99.99
2018-11-13T12:18:28.679Z,99.99
2018-11-13T12:19:28.725Z,99.99
2018-11-13T12:20:28.650Z,99.99
2018-11-13T12:21:28.637Z,99.99
2018-11-13T12:22:28.609Z,99.99
2018-11-13T12:23:28.602Z,99.99
2018-11-13T12:24:28.589Z,99.99
2018-11-13T12:25:28.577Z,99.99
2018-11-13T12:26:28.554Z,98.43
2018-11-13T12:27:28.541Z,98.33
2018-11-13T12:28:28.527Z,99.57
2018-11-13T12:29:28.512Z,98.71
2018-11-13T12:30:28.490Z,97.95
2018-11-13T12:31:28.477Z,97.75
2018-11-13T12:32:28.474Z,97.71
2018-11-13T12:33:28.459Z,99.14
2018-11-13T12:34:28.483Z,99.04
2018-11-13T12:35:28.423Z,99.76
2018-11-13T12:36:28.409Z,99.57
2018-11-13T12:37:28.387Z,99.10
2018-11-13T12:38:28.368Z,99.57
2018-11-13T12:39:28.358Z,98.47
2018-11-13T12:40:28.339Z,98.85
2018-11-13T12:41:28.326Z,98.57
2018-11-13T12:42:28.312Z,98.75
2018-11-13T12:43:29.189Z,98.28
2018-11-13T12:44:28.273Z,99.10
2018-11-13T12:45:28.261Z,99.57
2018-11-13T12:46:28.255Z,98.61
2018-11-13T12:47:28.239Z,98.33
2018-11-13T12:48:28.210Z,97.95
2018-11-13T12:49:28.270Z,97.90
2018-11-13T12:50:28.187Z,98.18
2018-11-13T12:51:28.162Z,99.33
2018-11-13T12:52:28.156Z,99.90